Impacts TAF Board
For situational awareness. Not to be used for flight planning purposes.
IDs:

KMLU - Monroe Rgnl, LA, US

Issued at 2340 UTC 05 Dec 2019
Updated at 0117 UTC 06 Dec 2019
Potential Impact None Slight Moderate High
Time0053Z 06/02Z 06/03Z 06/04Z 06/05Z 06/06Z 06/07Z 06/08Z 06/09Z 06/10Z 06/11Z 06/12Z 06/13Z 06/14Z>>
Type OBS PRVL PRVL PRVL PRVL PRVL PRVL PRVL PRVL PRVL PRVL PRVL PRVL PRVL
VIS 10 >6 >6 >6 >6 >6 >6 >6 >6 >6 >6 >6 >6 >6
CIG -- 250 120 120 120 120 120 120 120 120 25 25 25 25
Cover CLR BKN BKN BKN BKN BKN BKN BKN BKN BKN OVC OVC OVC OVC
FltCat VFR VFR VFR VFR VFR VFR VFR VFR VFR VFR MVFR MVFR MVFR MVFR
WX -- -- -- -- -- -- -- -- -- -- VCSH VCSH VCSH VCSH
WDir 150 160 160 160 160 160 160 160 160 160 170 170 170 170
WSpd 4 5 5 5 5 5 5 5 5 5 6 6 6 6
WGst -- -- -- -- -- -- -- -- -- -- -- -- -- --
Raw TAF
KMLU 052340Z 0600/0624 16005KT P6SM SCT150 BKN250
  FM060300 16005KT P6SM BKN120
  FM061100 17006KT P6SM VCSH BKN025 OVC080
  FM061700 27006KT P6SM BKN015
  FM062200 34010KT P6SM BKN025


Raw METAR
KMLU 060053Z 15004KT 10SM CLR 17/04 A3004 RMK AO2 SLP170 T01670039
KMLU 052353Z 12004KT 10SM CLR 16/05 A3003 RMK AO2 SLP168 T01610050 10206 20161 53002
KMLU 052253Z 13003KT 10SM CLR 18/04 A3003 RMK AO2 SLP167 T01780039

METAR Board
Radar Display
Forecast Discussion
For situational awareness. Not to be used for flight planning purposes.